Time;durP1;ratioP1;P1;durP2;ratioP2;P2;SDS_P1;SDS_P2;PMS_P1;PMS_P2;Temp;Humidity;BMP_temperature;BMP_pressure;BME280_temperature;BME280_humidity;BME280_pressure;Samples;Min_cycle;Max_cycle;Signal;HPM_P1;HPM_P2
2022/03/23 00:00:43;;;;;;;58.03;25.53;;;;;;;-1.69;100.00;102624.76;1805081;79;21019;-61
2022/03/23 00:03:13;;;;;;;51.43;23.17;;;;;;;-1.65;100.00;102620.30;1784227;80;21020;-61
2022/03/23 00:05:42;;;;;;;45.70;21.20;;;;;;;-1.65;100.00;102621.55;1805268;79;21050;-61
2022/03/23 00:08:12;;;;;;;50.87;23.50;;;;;;;-1.90;100.00;102619.70;1783898;80;21026;-61
2022/03/23 00:10:40;;;;;;;49.23;21.47;;;;;;;-1.92;100.00;102619.64;1805366;79;21023;-61
2022/03/23 00:13:07;;;;;;;107.57;36.87;;;;;;;-1.97;100.00;102616.05;1784142;80;21532;-61
2022/03/23 00:15:35;;;;;;;179.87;56.13;;;;;;;-2.09;100.00;102613.02;1805418;79;21031;-61
2022/03/23 00:18:03;;;;;;;172.50;52.67;;;;;;;-2.00;100.00;102617.61;1783843;80;21051;-62
2022/03/23 00:20:33;;;;;;;194.63;59.03;;;;;;;-1.95;100.00;102622.02;1804974;79;21031;-61
2022/03/23 00:23:02;;;;;;;116.20;38.83;;;;;;;-1.96;100.00;102615.67;1784055;80;21066;-61
2022/03/23 00:25:29;;;;;;;60.17;24.33;;;;;;;-2.06;100.00;102612.75;1805200;79;21035;-62
2022/03/23 00:27:58;;;;;;;41.53;17.40;;;;;;;-2.11;100.00;102623.45;1784149;80;21550;-61
2022/03/23 00:30:27;;;;;;;33.13;14.37;;;;;;;-2.19;100.00;102616.80;1805090;79;21487;-61
2022/03/23 00:32:57;;;;;;;34.40;14.27;;;;;;;-2.27;100.00;102620.66;1784132;80;21043;-61
2022/03/23 00:35:24;;;;;;;33.70;14.13;;;;;;;-2.33;100.00;102616.63;1805330;79;21023;-62
2022/03/23 00:37:55;;;;;;;36.37;15.43;;;;;;;-2.35;100.00;102614.05;1783978;80;21508;-61
2022/03/23 00:40:23;;;;;;;35.40;14.90;;;;;;;-2.35;100.00;102612.80;1805129;79;21070;-61
2022/03/23 00:42:50;;;;;;;38.20;15.93;;;;;;;-2.48;100.00;102605.08;1783892;80;21035;-62
2022/03/23 00:45:18;;;;;;;38.50;16.37;;;;;;;-2.54;100.00;102606.08;1803610;79;21008;-62
2022/03/23 00:47:48;;;;;;;32.43;14.90;;;;;;;-2.53;100.00;102601.92;1801969;80;21035;-62
2022/03/23 00:50:15;;;;;;;39.97;16.27;;;;;;;-2.32;100.00;102601.56;1801844;80;21118;-62
2022/03/23 00:52:46;;;;;;;40.27;17.73;;;;;;;-2.29;100.00;102595.77;1741563;82;21067;-61
2022/03/23 00:55:14;;;;;;;39.37;17.03;;;;;;;-2.40;100.00;102592.80;1796263;80;21120;-61
2022/03/23 00:57:43;;;;;;;43.07;19.60;;;;;;;-2.44;100.00;102594.73;1796459;80;21004;-61
2022/03/23 01:00:17;;;;;;;51.17;20.33;;;;;;;-2.35;100.00;102595.14;1796444;80;21523;-61
2022/03/23 01:02:47;;;;;;;55.33;21.23;;;;;;;-2.37;100.00;102586.64;1797060;80;21014;-61
2022/03/23 01:05:17;;;;;;;43.80;19.17;;;;;;;-2.40;100.00;102591.55;1796499;80;21108;-61
2022/03/23 01:07:46;;;;;;;40.63;17.33;;;;;;;-2.45;100.00;102583.78;1741683;82;21042;-61
2022/03/23 01:10:16;;;;;;;46.23;18.33;;;;;;;-2.48;100.00;102579.86;1741645;82;21597;-61
2022/03/23 01:12:46;;;;;;;42.23;18.10;;;;;;;-2.50;100.00;102580.19;1796206;80;21039;-62
2022/03/23 01:15:19;;;;;;;45.00;18.17;;;;;;;-2.55;100.00;102574.52;1796521;80;21059;-62
2022/03/23 01:17:50;;;;;;;45.58;19.05;;;;;;;-2.67;100.00;102579.47;1796390;80;21031;-62
2022/03/23 01:20:21;;;;;;;42.90;20.03;;;;;;;-2.72;100.00;102577.14;1796488;80;21031;-62
2022/03/23 01:22:51;;;;;;;50.17;20.30;;;;;;;-2.72;100.00;102569.57;1796248;80;21508;-61
2022/03/23 01:25:19;;;;;;;45.90;19.87;;;;;;;-2.73;100.00;102570.38;1796513;80;21058;-62
2022/03/23 01:27:47;;;;;;;43.03;19.27;;;;;;;-2.74;100.00;102566.13;1796340;80;21063;-62
2022/03/23 01:30:17;;;;;;;46.03;18.70;;;;;;;-2.72;100.00;102570.83;1741953;82;21516;-61
2022/03/23 01:32:46;;;;;;;52.70;19.93;;;;;;;-2.66;100.00;102574.02;1796551;80;21006;-61
2022/03/23 01:35:14;;;;;;;42.60;19.50;;;;;;;-2.69;100.00;102576.43;1741471;82;21578;-61
2022/03/23 01:37:44;;;;;;;42.80;18.80;;;;;;;-2.76;100.00;102576.53;1796357;80;21075;-61
2022/03/23 01:40:12;;;;;;;43.27;18.73;;;;;;;-2.74;100.00;102575.34;1741408;82;21074;-61
2022/03/23 01:42:41;;;;;;;50.23;19.07;;;;;;;-2.69;100.00;102581.47;1796389;80;21027;-61
2022/03/23 01:45:10;;;;;;;44.33;19.23;;;;;;;-2.68;100.00;102578.14;1798145;80;21070;-61
2022/03/23 01:47:38;;;;;;;53.40;20.87;;;;;;;-2.66;100.00;102571.09;1784218;80;21035;-61
2022/03/23 01:50:08;;;;;;;49.20;20.87;;;;;;;-2.70;100.00;102576.80;1805468;79;21046;-61
2022/03/23 01:52:38;;;;;;;50.20;20.30;;;;;;;-2.75;100.00;102571.98;1784344;80;20996;-61
2022/03/23 01:55:14;;;;;;;51.87;20.40;;;;;;;-2.76;100.00;102569.37;1805434;79;21061;-61
2022/03/23 01:57:48;;;;;;;51.37;20.80;;;;;;;-2.81;100.00;102569.19;1784114;80;21051;-62
2022/03/23 02:00:18;;;;;;;52.37;20.73;;;;;;;-2.90;100.00;102571.28;1805521;79;21050;-62
2022/03/23 02:02:48;;;;;;;51.10;21.60;;;;;;;-2.88;100.00;102566.80;1784218;80;20996;-61
2022/03/23 02:05:17;;;;;;;50.70;22.00;;;;;;;-2.86;100.00;102578.19;1805393;79;21014;-61
2022/03/23 02:07:46;;;;;;;52.23;21.93;;;;;;;-2.94;100.00;102569.42;1783395;80;21055;-61
2022/03/23 02:10:14;;;;;;;53.40;21.70;;;;;;;-2.90;100.00;102567.13;1805534;79;21074;-62
2022/03/23 02:12:47;;;;;;;49.63;22.27;;;;;;;-2.98;100.00;102572.61;1757332;80;21539;-61
2022/03/23 02:15:18;;;;;;;46.17;21.13;;;;;;;-3.01;100.00;102560.73;1805163;79;21062;-62
2022/03/23 02:17:50;;;;;;;43.53;20.50;;;;;;;-3.12;100.00;102562.78;1784286;80;21039;-61
2022/03/23 02:20:16;;;;;;;42.13;19.60;;;;;;;-3.12;100.00;102561.52;1805194;79;21038;-62
2022/03/23 02:22:46;;;;;;;43.67;19.20;;;;;;;-3.08;100.00;102572.20;1784262;80;21051;-61
2022/03/23 02:25:22;;;;;;;44.20;19.43;;;;;;;-3.13;100.00;102573.64;1805422;79;21069;-62
2022/03/23 02:27:50;;;;;;;42.30;19.30;;;;;;;-3.20;100.00;102570.77;1784197;80;21020;-62
2022/03/23 02:30:18;;;;;;;36.77;17.93;;;;;;;-3.19;100.00;102568.33;1805481;79;21074;-61
2022/03/23 02:32:46;;;;;;;35.43;17.10;;;;;;;-3.17;100.00;102572.18;1784046;80;21035;-61
2022/03/23 02:35:15;;;;;;;39.53;17.70;;;;;;;-3.19;100.00;102567.47;1805423;79;21038;-62
2022/03/23 02:37:43;;;;;;;38.53;17.43;;;;;;;-3.17;100.00;102565.88;1784220;80;21058;-61
2022/03/23 02:40:11;;;;;;;41.87;18.20;;;;;;;-3.18;100.00;102564.14;1805254;79;21067;-62
2022/03/23 02:42:40;;;;;;;43.17;17.43;;;;;;;-3.28;100.00;102569.18;1784282;80;20992;-61
2022/03/23 02:45:10;;;;;;;35.57;17.00;;;;;;;-3.35;100.00;102567.16;1805337;79;21074;-61
2022/03/23 02:47:38;;;;;;;36.77;17.27;;;;;;;-3.28;100.00;102568.78;1784385;80;21563;-61
2022/03/23 02:50:08;;;;;;;39.50;19.40;;;;;;;-3.32;100.00;102567.31;1805203;79;21121;-61
2022/03/23 03:01:51;;;;;;;38.73;18.00;;;;;;;-3.51;100.00;102564.32;1784275;80;20995;-61
2022/03/23 03:03:59;;;;;;;37.33;17.27;;;;;;;-3.56;100.00;102558.22;1783929;80;21075;-61
2022/03/23 03:06:26;;;;;;;39.50;18.47;;;;;;;-3.55;100.00;102555.75;1805230;79;21027;-62
2022/03/23 03:08:55;;;;;;;45.40;19.33;;;;;;;-3.47;100.00;102556.12;1783895;80;21090;-62
2022/03/23 03:11:25;;;;;;;45.07;21.07;;;;;;;-3.49;100.00;102556.07;1805118;79;21043;-61
2022/03/23 03:13:54;;;;;;;45.30;21.47;;;;;;;-3.53;100.00;102556.69;1784464;80;21540;-61
2022/03/23 03:16:23;;;;;;;47.03;22.10;;;;;;;-3.59;100.00;102556.41;1775885;80;21040;-62
2022/03/23 03:18:52;;;;;;;44.53;20.60;;;;;;;-3.65;100.00;102551.08;1774851;80;21032;-61
2022/03/23 03:21:19;;;;;;;44.37;20.63;;;;;;;-3.63;100.00;102552.02;1773221;81;21000;-61
2022/03/23 03:23:48;;;;;;;46.47;22.37;;;;;;;-3.66;100.00;102551.89;1773510;81;21064;-61
2022/03/23 03:26:17;;;;;;;49.97;23.00;;;;;;;-3.65;100.00;102546.05;1773222;81;21052;-61
2022/03/23 03:28:46;;;;;;;53.67;24.43;;;;;;;-3.71;100.00;102547.02;1773460;81;20992;-61
2022/03/23 03:31:15;;;;;;;52.73;23.43;;;;;;;-3.78;100.00;102548.39;1773002;81;21067;-61
2022/03/23 03:33:43;;;;;;;67.93;29.13;;;;;;;-3.82;100.00;102540.23;1773327;81;21024;-61
2022/03/23 03:36:11;;;;;;;57.80;26.57;;;;;;;-3.77;100.00;102544.21;1773542;81;21024;-61
2022/03/23 03:38:39;;;;;;;54.73;24.07;;;;;;;-3.77;100.00;102545.09;1773536;81;21082;-60
2022/03/23 03:41:07;;;;;;;62.67;24.77;;;;;;;-3.77;100.00;102548.87;1773232;81;21570;-61
2022/03/23 03:43:35;;;;;;;71.87;30.30;;;;;;;-3.75;100.00;102543.52;1773426;81;21044;-61
2022/03/23 03:46:06;;;;;;;66.07;27.20;;;;;;;-3.73;100.00;102548.59;1773376;81;21009;-61
2022/03/23 03:48:34;;;;;;;70.57;28.60;;;;;;;-3.87;100.00;102553.00;1773598;81;21538;-61
2022/03/23 03:51:06;;;;;;;60.70;27.13;;;;;;;-3.88;100.00;102556.29;1773268;81;20981;-61
2022/03/23 03:53:35;;;;;;;60.40;26.83;;;;;;;-3.71;100.00;102552.94;1773581;81;21887;-61
2022/03/23 03:56:04;;;;;;;63.10;26.70;;;;;;;-3.67;100.00;102544.74;1773542;81;21028;-61
2022/03/23 03:58:31;;;;;;;57.73;26.57;;;;;;;-3.66;100.00;102546.86;1773543;81;21028;-61
2022/03/23 04:01:00;;;;;;;58.43;26.33;;;;;;;-3.67;100.00;102546.38;1773188;81;21063;-61
2022/03/23 04:03:27;;;;;;;60.87;26.23;;;;;;;-3.71;100.00;102544.50;1773314;81;21107;-61
2022/03/23 04:05:54;;;;;;;55.27;25.87;;;;;;;-3.77;100.00;102544.21;1773633;81;21540;-61
2022/03/23 04:08:22;;;;;;;60.97;27.43;;;;;;;-3.68;100.00;102542.14;1773168;81;21520;-61
2022/03/23 04:10:50;;;;;;;56.67;25.90;;;;;;;-3.62;100.00;102548.31;1773408;81;20988;-61
2022/03/23 04:13:18;;;;;;;61.27;26.37;;;;;;;-3.56;100.00;102537.68;1773514;81;21034;-62
2022/03/23 04:15:45;;;;;;;61.87;25.43;;;;;;;-3.55;100.00;102546.09;1773421;81;21024;-62
2022/03/23 04:18:12;;;;;;;59.60;24.37;;;;;;;-3.56;100.00;102540.20;1773192;81;21536;-61
2022/03/23 04:20:40;;;;;;;62.10;25.03;;;;;;;-3.59;100.00;102541.30;1773180;81;21032;-62
2022/03/23 04:23:07;;;;;;;51.20;21.70;;;;;;;-3.61;100.00;102545.40;1773623;81;21000;-60
2022/03/23 04:25:34;;;;;;;50.13;21.47;;;;;;;-3.50;100.00;102544.26;1773198;81;21048;-61
2022/03/23 04:28:02;;;;;;;49.27;22.23;;;;;;;-3.56;100.00;102536.42;1773482;81;21106;-61
2022/03/23 04:30:32;;;;;;;45.77;20.37;;;;;;;-3.60;100.00;102531.19;1773795;81;21477;-61
2022/03/23 04:33:00;;;;;;;51.10;21.83;;;;;;;-3.57;100.00;102541.38;1773610;81;21012;-61
2022/03/23 04:35:29;;;;;;;45.17;21.50;;;;;;;-3.41;100.00;102537.52;1773548;81;21493;-61
2022/03/23 04:37:57;;;;;;;53.17;22.60;;;;;;;-3.23;100.00;102532.45;1773738;81;20993;-61
2022/03/23 04:40:25;;;;;;;50.30;22.27;;;;;;;-3.30;100.00;102535.52;1773415;81;21072;-62
2022/03/23 04:42:54;;;;;;;55.17;23.77;;;;;;;-3.29;100.00;102534.30;1773427;81;21071;-62
2022/03/23 04:45:21;;;;;;;78.80;30.23;;;;;;;-3.06;100.00;102540.80;1773481;81;21040;-62
2022/03/23 04:47:48;;;;;;;72.03;27.37;;;;;;;-2.97;100.00;102541.59;1773679;81;21599;-62
2022/03/23 04:50:16;;;;;;;65.23;26.30;;;;;;;-2.91;100.00;102535.55;1773403;81;21548;-61
2022/03/23 04:52:45;;;;;;;56.77;24.23;;;;;;;-2.80;100.00;102539.39;1773340;81;21020;-62
2022/03/23 04:55:15;;;;;;;53.87;24.23;;;;;;;-2.72;100.00;102539.73;1773682;81;21469;-61
2022/03/23 04:57:43;;;;;;;51.30;23.37;;;;;;;-2.68;100.00;102532.77;1773668;81;21023;-62
2022/03/23 05:00:15;;;;;;;52.67;24.30;;;;;;;-2.60;100.00;102533.09;1773350;81;21099;-62
2022/03/23 05:02:45;;;;;;;59.90;23.90;;;;;;;-2.53;100.00;102548.55;1773681;81;21067;-61
2022/03/23 05:05:14;;;;;;;59.17;23.73;;;;;;;-2.44;100.00;102533.80;1773457;81;21052;-62
2022/03/23 05:07:44;;;;;;;61.30;24.53;;;;;;;-2.35;100.00;102540.91;1773501;81;21028;-61
2022/03/23 05:10:13;;;;;;;57.07;25.00;;;;;;;-2.24;100.00;102536.30;1773576;81;21488;-61
2022/03/23 05:12:45;;;;;;;51.87;24.60;;;;;;;-2.09;100.00;102539.84;1773809;81;21035;-61
2022/03/23 05:15:14;;;;;;;53.57;23.43;;;;;;;-1.96;100.00;102536.17;1773725;81;21024;-62
2022/03/23 05:17:45;;;;;;;50.00;23.50;;;;;;;-1.85;100.00;102539.97;1773665;81;21547;-62
2022/03/23 05:20:14;;;;;;;51.83;22.90;;;;;;;-1.76;100.00;102544.50;1773541;81;21024;-62
2022/03/23 05:22:42;;;;;;;49.37;22.97;;;;;;;-1.65;100.00;102545.80;1773596;81;21055;-60
2022/03/23 05:25:11;;;;;;;48.13;22.67;;;;;;;-1.52;100.00;102544.60;1773332;81;21016;-60
2022/03/23 05:27:42;;;;;;;50.17;22.77;;;;;;;-1.43;100.00;102533.19;1773489;81;21012;-61
2022/03/23 05:30:12;;;;;;;48.77;22.73;;;;;;;-1.30;100.00;102538.70;1773591;81;21036;-60
2022/03/23 05:32:41;;;;;;;48.10;23.93;;;;;;;-1.18;100.00;102537.04;1773639;81;21500;-61
2022/03/23 05:35:10;;;;;;;54.13;23.90;;;;;;;-1.05;100.00;102535.02;1773649;81;21040;-60
2022/03/23 05:37:38;;;;;;;53.40;24.63;;;;;;;-0.92;100.00;102529.14;1773551;81;21024;-60
2022/03/23 05:40:07;;;;;;;54.40;24.80;;;;;;;-0.82;100.00;102520.66;1773725;81;21504;-60
2022/03/23 05:42:36;;;;;;;48.73;25.03;;;;;;;-0.71;100.00;102527.38;1773644;81;21055;-61
2022/03/23 05:45:04;;;;;;;57.47;24.90;;;;;;;-0.57;100.00;102518.98;1773724;81;21012;-61
2022/03/23 05:47:32;;;;;;;58.50;25.47;;;;;;;-0.43;100.00;102512.75;1773580;81;21508;-61
2022/03/23 05:50:00;;;;;;;54.70;25.23;;;;;;;-0.30;100.00;102519.06;1773362;81;22013;-61
2022/03/23 05:52:27;;;;;;;54.50;23.73;;;;;;;-0.19;100.00;102514.34;1773469;81;21504;-61
2022/03/23 05:54:55;;;;;;;53.63;24.93;;;;;;;-0.06;100.00;102515.21;1773363;81;21075;-61
2022/03/23 05:57:22;;;;;;;52.23;24.17;;;;;;;0.08;100.00;102509.70;1773619;81;21028;-62
2022/03/23 05:59:51;;;;;;;56.18;23.83;;;;;;;0.21;100.00;102516.03;1773283;81;21044;-61
2022/03/23 06:02:18;;;;;;;55.67;25.15;;;;;;;0.39;100.00;102516.59;1773376;81;21071;-61
2022/03/23 06:04:46;;;;;;;51.83;23.95;;;;;;;0.51;100.00;102514.42;1773487;81;21024;-61
2022/03/23 06:07:13;;;;;;;51.50;22.02;;;;;;;0.67;100.00;102513.20;1777475;80;21393;-61
2022/03/23 06:09:41;;;;;;;50.40;23.15;;;;;;;0.90;100.00;102513.84;1786787;80;21527;-61
2022/03/23 06:12:12;;;;;;;55.92;23.47;;;;;;;1.13;100.00;102513.20;1788891;80;21019;-61
2022/03/23 06:14:42;;;;;;;50.75;22.58;;;;;;;1.31;100.00;102514.53;1781535;80;21023;-61
2022/03/23 06:17:11;;;;;;;42.48;20.55;;;;;;;1.56;100.00;102516.02;1785733;80;20984;-61
2022/03/23 06:19:39;;;;;;;47.55;21.02;;;;;;;1.77;95.64;102501.74;1784225;80;21000;-61
2022/03/23 06:22:09;;;;;;;46.15;21.70;;;;;;;2.03;90.49;102504.91;1793866;79;20966;-61
2022/03/23 06:24:36;;;;;;;44.53;20.82;;;;;;;2.30;87.00;102504.66;1782079;80;20979;-61
2022/03/23 06:27:05;;;;;;;43.42;20.50;;;;;;;2.49;86.40;102502.10;1771718;80;21024;-62
2022/03/23 06:29:33;;;;;;;40.45;20.52;;;;;;;2.68;84.96;102498.70;1779004;80;21012;-62
2022/03/23 06:32:00;;;;;;;39.73;20.57;;;;;;;2.86;84.00;102493.98;1799313;79;21002;-62
2022/03/23 06:34:29;;;;;;;42.15;19.40;;;;;;;2.93;82.68;102498.77;1793890;79;21440;-62
2022/03/23 06:36:58;;;;;;;39.20;20.43;;;;;;;3.19;81.24;102492.48;1794862;79;21534;-62
2022/03/23 06:39:25;;;;;;;40.70;20.20;;;;;;;3.36;79.95;102486.84;1793736;79;20994;-62
2022/03/23 06:41:54;;;;;;;40.67;19.70;;;;;;;3.44;79.19;102490.38;1789402;78;21085;-61
2022/03/23 06:44:21;;;;;;;36.48;19.70;;;;;;;3.66;78.31;102486.50;1805178;78;21514;-62
2022/03/23 06:46:49;;;;;;;42.15;18.95;;;;;;;3.94;77.14;102481.86;1794086;79;20995;-62
2022/03/23 06:49:17;;;;;;;34.27;17.25;;;;;;;4.16;74.92;102480.06;1783817;80;21095;-62
2022/03/23 06:51:46;;;;;;;26.68;14.30;;;;;;;4.33;72.08;102483.25;1777910;80;21004;-61
2022/03/23 06:54:13;;;;;;;34.58;17.82;;;;;;;4.58;69.68;102480.20;1777216;80;21091;-63
2022/03/23 06:56:41;;;;;;;31.05;16.90;;;;;;;4.65;69.48;102471.34;1782027;80;21030;-62
2022/03/23 06:59:08;;;;;;;26.00;14.18;;;;;;;4.86;67.52;102479.66;1777636;80;20997;-62
2022/03/23 07:01:35;;;;;;;26.07;14.10;;;;;;;5.01;64.79;102474.73;1789164;80;21047;-62
2022/03/23 07:04:04;;;;;;;25.88;14.83;;;;;;;5.16;65.35;102479.13;1822141;79;21098;-62
2022/03/23 07:06:32;;;;;;;24.32;13.83;;;;;;;5.31;65.47;102477.14;1792059;80;20997;-62
2022/03/23 07:11:47;;;;;;;20.68;11.55;;;;;;;5.59;63.75;102474.41;1806024;79;21032;-62
2022/03/23 07:14:15;;;;;;;24.80;13.55;;;;;;;5.71;64.05;102468.13;1805526;79;21024;-62
2022/03/23 07:16:43;;;;;;;26.45;13.62;;;;;;;5.84;62.66;102465.25;1805399;79;21074;-62
2022/03/23 07:19:12;;;;;;;27.80;13.45;;;;;;;5.99;62.09;102468.36;1807131;78;21003;-62
2022/03/23 07:21:41;;;;;;;22.02;11.75;;;;;;;5.96;59.98;102467.05;1789768;79;20972;-62
2022/03/23 07:24:11;;;;;;;28.23;13.95;;;;;;;6.08;57.89;102462.44;1805943;78;20940;-63
2022/03/23 07:26:39;;;;;;;23.47;13.65;;;;;;;6.26;57.07;102457.85;1822302;78;21008;-62
2022/03/23 07:29:07;;;;;;;22.77;14.40;;;;;;;6.49;56.96;102456.27;1795137;80;21067;-62
2022/03/23 07:31:35;;;;;;;28.07;14.15;;;;;;;6.62;56.41;102451.61;1827638;78;21036;-62
2022/03/23 07:34:04;;;;;;;23.10;13.88;;;;;;;6.77;56.52;102448.27;1795218;80;21063;-62
2022/03/23 07:36:31;;;;;;;23.45;13.90;;;;;;;6.90;55.55;102445.74;1827696;78;21500;-62
2022/03/23 07:39:00;;;;;;;25.15;14.13;;;;;;;7.02;54.81;102445.77;1795110;80;21039;-62
2022/03/23 07:41:27;;;;;;;27.17;14.45;;;;;;;7.04;54.83;102438.94;1797760;78;21055;-62
2022/03/23 07:43:55;;;;;;;25.77;14.00;;;;;;;7.13;54.37;102436.38;1791325;80;21017;-62
2022/03/23 07:46:22;;;;;;;23.98;13.32;;;;;;;7.34;54.68;102439.80;1789218;80;21037;-62
2022/03/23 07:48:49;;;;;;;22.02;13.30;;;;;;;7.52;52.07;102443.67;1785514;80;21053;-62
2022/03/23 07:51:17;;;;;;;23.20;12.00;;;;;;;7.70;52.15;102445.78;1785155;80;21480;-62
2022/03/23 07:53:46;;;;;;;20.85;11.80;;;;;;;7.88;49.87;102438.06;1812785;79;20992;-62
2022/03/23 07:56:13;;;;;;;23.52;12.43;;;;;;;8.09;49.70;102435.02;1785296;80;21019;-62
2022/03/23 07:58:41;;;;;;;23.35;12.13;;;;;;;8.20;49.91;102431.57;1813133;79;21473;-62
2022/03/23 08:01:08;;;;;;;19.15;11.43;;;;;;;8.34;49.42;102431.96;1785324;80;21076;-62
2022/03/23 08:03:36;;;;;;;20.32;10.85;;;;;;;8.46;48.19;102430.66;1813358;79;21036;-62
2022/03/23 08:06:03;;;;;;;21.35;11.33;;;;;;;8.54;48.71;102420.36;1785491;80;21077;-62
2022/03/23 08:08:31;;;;;;;17.37;11.08;;;;;;;8.69;48.11;102420.70;1813069;79;21028;-62
2022/03/23 08:10:59;;;;;;;19.87;11.38;;;;;;;8.73;47.23;102414.25;1785859;80;21007;-62
2022/03/23 08:13:28;;;;;;;21.17;10.85;;;;;;;8.76;47.85;102414.25;1812991;79;21075;-62
2022/03/23 08:15:56;;;;;;;18.65;10.80;;;;;;;8.76;47.64;102417.25;1785704;80;21027;-62
2022/03/23 08:18:25;;;;;;;20.77;11.38;;;;;;;8.81;47.60;102412.48;1813014;79;21544;-62
2022/03/23 08:20:54;;;;;;;16.70;10.05;;;;;;;8.89;47.20;102410.31;1785825;80;21047;-62
2022/03/23 08:23:25;;;;;;;23.90;10.68;;;;;;;9.08;45.01;102408.02;1812983;79;21011;-62
2022/03/23 08:25:53;;;;;;;18.32;10.78;;;;;;;9.27;45.53;102395.91;1785523;80;21007;-62
2022/03/23 08:28:21;;;;;;;20.08;10.70;;;;;;;9.36;44.54;102397.53;1813307;79;21480;-63
2022/03/23 08:30:49;;;;;;;22.30;10.28;;;;;;;9.41;44.13;102395.35;1785520;80;21052;-62
2022/03/23 08:33:16;;;;;;;18.75;10.88;;;;;;;9.52;44.19;102400.39;1813144;79;21043;-62
2022/03/23 08:35:43;;;;;;;18.07;10.28;;;;;;;9.60;43.83;102389.59;1785348;80;21052;-62
2022/03/23 08:38:12;;;;;;;20.90;10.70;;;;;;;9.66;44.18;102384.83;1795814;79;20999;-62
2022/03/23 08:40:39;;;;;;;21.07;11.65;;;;;;;9.76;45.14;102380.45;1812070;79;21000;-62
2022/03/23 08:43:07;;;;;;;27.98;11.57;;;;;;;9.79;45.33;102370.98;1785412;80;21020;-62
2022/03/23 08:45:36;;;;;;;24.12;11.25;;;;;;;9.90;45.14;102364.42;1813024;79;21016;-62
2022/03/23 08:48:04;;;;;;;20.92;10.20;;;;;;;10.01;45.00;102361.72;1785338;80;21524;-62
2022/03/23 08:50:31;;;;;;;16.27;9.03;;;;;;;9.98;43.93;102361.77;1813002;79;21044;-62
2022/03/23 08:53:00;;;;;;;14.55;8.73;;;;;;;10.06;43.06;102357.38;1785771;80;21020;-63
2022/03/23 08:55:29;;;;;;;16.87;9.80;;;;;;;10.06;42.57;102348.37;1788450;79;21067;-63
2022/03/23 08:57:56;;;;;;;21.40;10.53;;;;;;;10.16;43.45;102349.97;1785746;80;21012;-63
2022/03/23 09:00:24;;;;;;;22.35;11.75;;;;;;;10.25;43.82;102341.70;1812991;79;21047;-63
2022/03/23 09:02:52;;;;;;;20.10;9.98;;;;;;;10.29;44.07;102339.50;1785666;79;20992;-62
2022/03/23 09:05:20;;;;;;;16.67;8.90;;;;;;;10.31;43.13;102345.52;1785391;80;21024;-62
2022/03/23 09:07:47;;;;;;;15.00;8.33;;;;;;;10.11;41.64;102341.44;1785411;80;21027;-62
2022/03/23 09:10:18;;;;;;;13.80;8.05;;;;;;;9.96;42.46;102333.92;1785670;80;21036;-63
2022/03/23 09:12:47;;;;;;;13.62;8.45;;;;;;;9.94;42.94;102331.81;1785326;80;21039;-63
2022/03/23 09:15:17;;;;;;;14.65;7.58;;;;;;;10.09;42.98;102326.89;1785606;80;21071;-63
2022/03/23 09:17:47;;;;;;;16.82;7.70;;;;;;;10.25;42.20;102321.12;1785427;80;21528;-63
2022/03/23 09:20:16;;;;;;;17.37;7.17;;;;;;;10.16;43.02;102317.80;1785608;80;21047;-62
2022/03/23 09:22:45;;;;;;;12.50;7.37;;;;;;;10.21;42.36;102321.58;1785442;80;21071;-63
2022/03/23 09:25:15;;;;;;;14.60;7.90;;;;;;;10.42;42.27;102314.02;1798127;80;21552;-63
2022/03/23 09:27:44;;;;;;;13.22;7.97;;;;;;;10.39;42.95;102311.50;1785815;80;20995;-63
2022/03/23 09:30:13;;;;;;;11.93;7.62;;;;;;;10.45;42.12;102304.98;1785831;80;21008;-62
2022/03/23 09:32:43;;;;;;;15.18;7.40;;;;;;;10.49;41.57;102304.06;1784660;80;20991;-63
2022/03/23 09:35:11;;;;;;;10.75;6.83;;;;;;;10.47;42.69;102299.81;1797180;80;20992;-63
2022/03/23 09:37:49;;;;;;;13.48;7.33;;;;;;;10.63;41.72;102303.86;1784876;80;21590;-63
2022/03/23 09:40:24;;;;;;;14.83;7.67;;;;;;;10.81;41.37;102292.41;1784717;80;21091;-63
2022/03/23 09:43:00;;;;;;;18.60;7.80;;;;;;;10.94;41.60;102295.63;1771169;80;21071;-63
2022/03/23 09:48:09;;;;;;;18.77;7.60;;;;;;;10.97;41.14;102292.56;1789285;80;21051;-63
2022/03/23 09:50:39;;;;;;;17.35;7.75;;;;;;;10.84;40.65;102292.34;1794479;80;21032;-63
2022/03/23 09:53:07;;;;;;;15.23;7.87;;;;;;;10.85;40.81;102283.76;1794473;79;21527;-62
2022/03/23 09:55:36;;;;;;;13.75;8.10;;;;;;;10.91;42.22;102281.08;1794196;80;21047;-62
2022/03/23 09:58:07;;;;;;;15.35;8.23;;;;;;;10.94;41.17;102284.88;1795241;80;21074;-62
2022/03/23 10:00:38;;;;;;;15.03;8.00;;;;;;;10.87;40.20;102274.28;1795324;80;21500;-62
2022/03/23 10:03:34;;;;;;;13.38;8.15;;;;;;;10.76;41.03;102265.86;1795057;79;21042;-62
2022/03/23 10:06:47;;;;;;;12.15;7.60;;;;;;;10.80;40.66;102268.36;1792606;79;21095;-61
2022/03/23 10:09:37;;;;;;;10.70;7.28;;;;;;;10.92;40.30;102254.87;1791837;80;21083;-62
2022/03/23 10:13:01;;;;;;;13.40;7.80;;;;;;;11.08;39.61;102249.00;1791157;80;21020;-62
2022/03/23 10:16:20;;;;;;;13.93;7.33;;;;;;;11.02;40.32;102245.65;1790101;80;20969;-61
2022/03/23 10:18:56;;;;;;;11.63;7.37;;;;;;;10.94;38.96;102243.65;1766628;80;20969;-63
2022/03/23 10:21:28;;;;;;;10.25;6.72;;;;;;;11.03;39.47;102239.63;1792563;80;21017;-63
2022/03/23 10:24:04;;;;;;;11.22;6.90;;;;;;;11.23;39.26;102239.68;1764694;80;20983;-62
2022/03/23 10:26:36;;;;;;;12.63;6.42;;;;;;;11.17;38.48;102232.06;1792869;79;21497;-62
2022/03/23 10:29:07;;;;;;;11.20;5.97;;;;;;;11.24;38.36;102232.38;1789248;80;21012;-62
2022/03/23 10:31:34;;;;;;;12.33;6.70;;;;;;;11.39;38.20;102223.06;1800952;78;21579;-62
2022/03/23 10:34:08;;;;;;;8.53;5.85;;;;;;;11.45;37.66;102223.80;1792774;79;21492;-62
2022/03/23 10:36:49;;;;;;;11.12;6.58;;;;;;;11.42;37.29;102219.12;1792527;80;20992;-63
2022/03/23 10:39:18;;;;;;;11.55;6.70;;;;;;;11.43;37.29;102209.23;1792835;80;20951;-62
2022/03/23 10:42:09;;;;;;;17.70;6.97;;;;;;;11.60;37.88;102208.02;1792305;80;21462;-62
2022/03/23 10:44:38;;;;;;;12.30;6.90;;;;;;;11.83;37.92;102198.03;1762612;78;20963;-63
2022/03/23 10:47:06;;;;;;;13.03;6.75;;;;;;;11.88;36.93;102197.08;1812380;78;21020;-63
2022/03/23 10:49:39;;;;;;;11.03;6.55;;;;;;;11.77;37.16;102189.14;1791628;79;21797;-63
2022/03/23 10:52:19;;;;;;;9.93;6.60;;;;;;;11.77;37.60;102185.72;1792073;78;20999;-61
2022/03/23 10:54:57;;;;;;;15.58;7.10;;;;;;;11.85;36.93;102176.08;1797827;80;21468;-61
2022/03/23 10:57:44;;;;;;;12.65;6.83;;;;;;;11.91;35.65;102179.00;1783654;80;20983;-63
2022/03/23 11:00:36;;;;;;;14.40;7.15;;;;;;;11.90;35.72;102179.86;1791649;79;21030;-62
2022/03/23 11:03:09;;;;;;;10.58;6.53;;;;;;;11.84;36.00;102171.81;1789939;80;21046;-63
2022/03/23 11:05:46;;;;;;;10.95;6.62;;;;;;;12.02;36.71;102165.38;1790091;80;21007;-62
2022/03/23 11:08:21;;;;;;;14.70;6.65;;;;;;;12.13;36.54;102158.25;1785145;80;20983;-62
2022/03/23 11:16:51;;;;;;;15.40;7.10;;;;;;;12.15;35.19;102146.15;1759971;80;21741;-62
2022/03/23 11:19:26;;;;;;;14.00;6.55;;;;;;;12.23;34.31;102137.77;1784705;80;21008;-62
2022/03/23 11:22:14;;;;;;;15.32;7.00;;;;;;;12.32;34.26;102131.52;1776903;80;21065;-62
2022/03/23 11:24:46;;;;;;;15.03;7.75;;;;;;;12.36;34.27;102131.00;1780734;80;21038;-62
2022/03/23 11:27:18;;;;;;;10.95;6.97;;;;;;;12.39;33.89;102127.91;1791536;79;20984;-62
2022/03/23 11:29:49;;;;;;;14.20;7.10;;;;;;;12.55;34.88;102124.48;1794415;80;21132;-62
2022/03/23 11:32:24;;;;;;;13.70;7.67;;;;;;;12.50;34.15;102119.87;1777336;80;21020;-62
2022/03/23 11:34:56;;;;;;;11.45;7.20;;;;;;;12.38;33.94;102114.58;1794890;79;20968;-62
2022/03/23 11:37:28;;;;;;;14.87;7.15;;;;;;;12.33;34.09;102114.31;1790697;80;20975;-62
2022/03/23 11:39:57;;;;;;;11.78;7.22;;;;;;;12.38;34.40;102111.16;1789244;80;21563;-62
2022/03/23 11:42:25;;;;;;;11.53;7.25;;;;;;;12.33;33.30;102107.86;1788905;80;21935;-62